Disclaimer

Please do not use the information listed here in-flight or in-navigation, as they are not provided to us by the airports but are provided by volunteers, so they might be outdated.

Search


Regions


Airport information page

Radio informations:
CHERBOURG TWR - 119.625 MHz
DEAUVILLE APP - 119.35 MHz

Airport informations:
Latitude: 49° 39' 00.38" N
Longitude: 001° 28' 13.01" W
Elevation: 459 feet - 140 meters
Operating hours: Remarks
Operating agency: Civil government, landing fees and diplomatic clearance may be required
Timezone: UTC+1(+2DT) - Last Sunday in March to last Sunday in October
Fuel: Jet A1, without icing nhibitor.

100/130 MIL Spec, low lead, aviation gasoline (BLUE)

Runway information:
10/28 - 8005 x 148 feet< - >2440 x 45 meters

Recent METARs:
LFRC 151300Z AUTO 16017KT 2800 -DZ BR OVC002/// ///CB 03/02 Q1007 TEMPO RA OVC003 BECMG 16015G25KT
LFRC 151330Z AUTO 16018KT 7000 -RA OVC003/// ///CB 04/03 Q1007 TEMPO 2000 RA OVC003 BECMG 16015G25KT
LFRC 151400Z AUTO 17017KT 3000 -RA BR OVC002 04/03 Q1006 TEMPO RA BECMG 16015G25KT

Airport on the map: